Weather Data

Pearl Creek Farm: 8878 N Farm Road 75, Walnut Grove MO 65770

<== Previous Day (Tuesday 18 Nov 2014) | Next Day (Thursday 20 Nov 2014) ==>

Summary Precipitation Data For Wednesday 19 November 2014

ElementValueUnits
Precipitation0"
New Snow Depth0"
New Snow Water Equivalent0"
Total Snow Depth0.5"
Total Snow Water Equivalent*0"
Notes(none)
SourcePearl Creek Farm

* Total Snow Water Equivalent is not measured every day.

Summary Temperature Data For Wednesday 19 November 2014

ElementValueUnits
High Temperature49 oF
Low Temperature26 oF
Average Temperature39 oF
High Humidity80 %
Low Humidity56 %
Average Humidity65 %
SourcePearl Creek Farm

Detail Temperature Data For Wednesday 19 November 2014

Date / TimeTemp (F)RH (%)Dew Pt (F)Report Date / TimeSource
2014-11-19 00:00:00 35 71 26.4 2015-01-01 13:17:33 Pearl Creek Farm
2014-11-19 00:30:00 36 68 26.5 2015-01-01 13:17:33 Pearl Creek Farm
2014-11-19 01:00:00 37 67 26.9 2015-01-01 13:17:33 Pearl Creek Farm
2014-11-19 01:30:00 38 67 27.9 2015-01-01 13:17:33 Pearl Creek Farm
2014-11-19 02:00:00 37 66 26.7 2015-01-01 13:17:33 Pearl Creek Farm
2014-11-19 02:30:00 37 66 26.5 2015-01-01 13:17:33 Pearl Creek Farm
2014-11-19 03:00:00 38 64 26.9 2015-01-01 13:17:33 Pearl Creek Farm
2014-11-19 03:30:00 39 63 27.5 2015-01-01 13:17:33 Pearl Creek Farm
2014-11-19 04:00:00 39 63 27.5 2015-01-01 13:17:33 Pearl Creek Farm
2014-11-19 04:30:00 39 62 26.9 2015-01-01 13:17:33 Pearl Creek Farm
2014-11-19 05:00:00 39 61 26.5 2015-01-01 13:17:33 Pearl Creek Farm
2014-11-19 05:30:00 40 61 27.5 2015-01-01 13:17:33 Pearl Creek Farm
2014-11-19 06:00:00 40 61 27.5 2015-01-01 13:17:33 Pearl Creek Farm
2014-11-19 06:30:00 39 61 26.7 2015-01-01 13:17:33 Pearl Creek Farm
2014-11-19 07:00:00 39 62 27.1 2015-01-01 13:17:33 Pearl Creek Farm
2014-11-19 07:30:00 38 65 27.1 2015-01-01 13:17:33 Pearl Creek Farm
2014-11-19 08:00:00 38 65 27.1 2015-01-01 13:17:33 Pearl Creek Farm
2014-11-19 08:30:00 39 63 27.5 2015-01-01 13:17:33 Pearl Creek Farm
2014-11-19 09:00:00 40 63 28.3 2015-01-01 13:17:33 Pearl Creek Farm
2014-11-19 09:30:00 40 62 28.1 2015-01-01 13:17:33 Pearl Creek Farm
2014-11-19 10:00:00 42 60 29.2 2015-01-01 13:17:33 Pearl Creek Farm
2014-11-19 10:30:00 43 60 30.1 2015-01-01 13:17:33 Pearl Creek Farm
2014-11-19 11:00:00 44 59 30.6 2015-01-01 13:17:33 Pearl Creek Farm
2014-11-19 11:30:00 45 61 32.2 2015-01-01 13:17:33 Pearl Creek Farm
2014-11-19 12:00:00 45 59 31.4 2015-01-01 13:17:33 Pearl Creek Farm
2014-11-19 12:30:00 46 59 32.5 2015-01-01 13:17:33 Pearl Creek Farm
2014-11-19 13:00:00 47 59 33.2 2015-01-01 13:17:33 Pearl Creek Farm
2014-11-19 13:30:00 48 57 33.5 2015-01-01 13:17:33 Pearl Creek Farm
2014-11-19 14:00:00 49 57 34.5 2015-01-01 13:17:33 Pearl Creek Farm
2014-11-19 14:30:00 49 58 34.7 2015-01-01 13:17:33 Pearl Creek Farm
2014-11-19 15:00:00 49 56 34.0 2015-01-01 13:17:33 Pearl Creek Farm
2014-11-19 15:30:00 49 56 33.8 2015-01-01 13:17:33 Pearl Creek Farm
2014-11-19 16:00:00 47 57 32.6 2015-01-01 13:17:33 Pearl Creek Farm
2014-11-19 16:30:00 46 59 32.3 2015-01-01 13:17:33 Pearl Creek Farm
2014-11-19 17:00:00 44 60 31.0 2015-01-01 13:17:33 Pearl Creek Farm
2014-11-19 17:30:00 42 65 30.9 2015-01-01 13:17:33 Pearl Creek Farm
2014-11-19 18:00:00 40 66 29.4 2015-01-01 13:17:33 Pearl Creek Farm
2014-11-19 18:30:00 38 66 27.5 2015-01-01 13:17:33 Pearl Creek Farm
2014-11-19 19:00:00 37 66 26.7 2015-01-01 13:17:33 Pearl Creek Farm
2014-11-19 19:30:00 35 68 25.5 2015-01-01 13:17:33 Pearl Creek Farm
2014-11-19 20:00:00 34 72 26.0 2015-01-01 13:17:33 Pearl Creek Farm
2014-11-19 20:30:00 33 73 25.3 2015-01-01 13:17:33 Pearl Creek Farm
2014-11-19 21:00:00 32 74 24.5 2015-01-01 13:17:33 Pearl Creek Farm
2014-11-19 21:30:00 29 77 22.6 2015-01-01 13:17:33 Pearl Creek Farm
2014-11-19 22:00:00 28 79 22.4 2015-01-01 13:17:33 Pearl Creek Farm
2014-11-19 22:30:00 28 80 22.5 2015-01-01 13:17:33 Pearl Creek Farm
2014-11-19 23:00:00 27 80 21.5 2015-01-01 13:17:33 Pearl Creek Farm
2014-11-19 23:30:00 26 80 20.6 2015-01-01 13:17:33 Pearl Creek Farm

A total of 48 rows are displayed.